createdAt,value
2018-01-20T00:01:07.670Z,98433
2018-01-20T00:03:13.638Z,98426
2018-01-20T00:05:20.179Z,98428
2018-01-20T00:07:26.492Z,98416
2018-01-20T00:09:41.265Z,98427
2018-01-20T00:12:02.318Z,98426
2018-01-20T00:14:08.400Z,98428
2018-01-20T00:16:14.759Z,98418
2018-01-20T00:18:20.869Z,98426
2018-01-20T00:20:27.773Z,98425
2018-01-20T00:24:47.982Z,98420
2018-01-20T00:26:54.777Z,98415
2018-01-20T00:29:01.152Z,98423
2018-01-20T00:31:07.738Z,98417
2018-01-20T00:33:14.684Z,98421
2018-01-20T00:35:20.652Z,98416
2018-01-20T00:37:26.575Z,98424
2018-01-20T00:39:32.724Z,98422
2018-01-20T00:41:38.349Z,98418
2018-01-20T00:43:44.098Z,98415
2018-01-20T00:45:50.117Z,98417
2018-01-20T00:47:55.924Z,98421
2018-01-20T00:50:03.328Z,98415
2018-01-20T00:52:09.199Z,98416
2018-01-20T00:54:16.747Z,98417
2018-01-20T00:56:22.320Z,98418
2018-01-20T00:58:28.211Z,98412
2018-01-20T01:03:44.103Z,98416
2018-01-20T01:05:49.972Z,98406
2018-01-20T01:07:55.590Z,98412
2018-01-20T01:10:01.326Z,98419
2018-01-20T01:12:07.029Z,98418
2018-01-20T01:14:12.711Z,98415
2018-01-20T01:16:18.540Z,98416
2018-01-20T01:18:24.107Z,98428
2018-01-20T01:20:29.704Z,98439
2018-01-20T01:22:35.293Z,98446
2018-01-20T01:24:40.973Z,98432
2018-01-20T01:26:46.611Z,98433
2018-01-20T01:28:52.473Z,98431
2018-01-20T01:30:57.990Z,98426
2018-01-20T01:33:03.604Z,98432
2018-01-20T01:35:09.163Z,98431
2018-01-20T01:37:15.353Z,98434
2018-01-20T01:39:20.925Z,98430
2018-01-20T01:41:26.600Z,98430
2018-01-20T01:43:32.480Z,98428
2018-01-20T01:45:38.004Z,98424
2018-01-20T01:47:43.617Z,98427
2018-01-20T01:49:49.468Z,98430
2018-01-20T01:51:55.066Z,98436
2018-01-20T01:54:00.721Z,98430
2018-01-20T01:56:06.710Z,98418
2018-01-20T01:58:12.208Z,98433
2018-01-20T02:00:17.900Z,98438
2018-01-20T02:02:23.427Z,98429
2018-01-20T02:04:28.946Z,98423
2018-01-20T02:06:34.392Z,98423
2018-01-20T02:08:39.978Z,98426
2018-01-20T02:10:45.670Z,98425
2018-01-20T02:12:52.939Z,98421
2018-01-20T02:14:58.701Z,98420
2018-01-20T02:17:05.259Z,98423
2018-01-20T02:19:11.227Z,98420
2018-01-20T02:21:16.824Z,98423
2018-01-20T02:23:22.299Z,98441
2018-01-20T02:25:28.436Z,98433
2018-01-20T02:27:33.985Z,98426
2018-01-20T02:29:40.214Z,98430
2018-01-20T02:31:46.220Z,98428
2018-01-20T02:33:51.792Z,98428
2018-01-20T02:35:57.324Z,98425
2018-01-20T02:38:03.642Z,98435
2018-01-20T02:40:09.262Z,98427
2018-01-20T02:42:15.012Z,98423
2018-01-20T02:44:20.982Z,98421
2018-01-20T02:46:26.636Z,98423
2018-01-20T02:48:32.221Z,98427
2018-01-20T02:50:38.309Z,98421
2018-01-20T02:52:44.022Z,98424
2018-01-20T02:54:49.532Z,98422
2018-01-20T02:56:56.666Z,98431
2018-01-20T02:59:03.490Z,98414
2018-01-20T03:01:09.521Z,98417
2018-01-20T03:03:15.016Z,98420
2018-01-20T03:05:20.806Z,98418
2018-01-20T03:07:26.520Z,98414
2018-01-20T03:09:32.129Z,98424
2018-01-20T03:11:37.804Z,98427
2018-01-20T03:13:43.720Z,98421
2018-01-20T03:15:49.466Z,98407
2018-01-20T03:17:55.078Z,98401
2018-01-20T03:20:01.388Z,98384
2018-01-20T03:22:07.292Z,98402
2018-01-20T03:24:12.945Z,98394
2018-01-20T03:26:19.537Z,98403
2018-01-20T03:28:25.508Z,98396
2018-01-20T03:30:31.005Z,98397
2018-01-20T03:32:36.450Z,98417
2018-01-20T03:34:42.370Z,98410
2018-01-20T03:36:47.942Z,98421
2018-01-20T03:38:53.693Z,98413
2018-01-20T03:43:56.085Z,98410
2018-01-20T03:46:02.186Z,98395
2018-01-20T03:48:08.299Z,98389
2018-01-20T03:50:14.113Z,98386
2018-01-20T03:52:20.707Z,98388
2018-01-20T03:54:26.716Z,98387
2018-01-20T03:56:33.003Z,98392
2018-01-20T03:58:38.847Z,98381
2018-01-20T04:00:46.047Z,98380
2018-01-20T04:02:52.387Z,98371
2018-01-20T04:05:11.702Z,98379
2018-01-20T04:07:18.080Z,98377
2018-01-20T04:09:24.516Z,98374
2018-01-20T04:11:30.638Z,98371
2018-01-20T04:13:36.900Z,98381
2018-01-20T04:15:42.462Z,98373
2018-01-20T04:17:48.094Z,98371
2018-01-20T04:19:54.014Z,98367
2018-01-20T04:21:59.598Z,98366
2018-01-20T04:24:05.160Z,98355
2018-01-20T04:26:11.100Z,98356
2018-01-20T04:28:16.753Z,98356
2018-01-20T04:30:22.293Z,98350
2018-01-20T04:32:28.352Z,98344
2018-01-20T04:34:33.925Z,98348
2018-01-20T04:36:39.523Z,98356
2018-01-20T04:38:45.144Z,98353
2018-01-20T04:40:51.123Z,98349
2018-01-20T04:42:56.737Z,98349
2018-01-20T04:45:02.433Z,98360
2018-01-20T04:47:08.069Z,98351
2018-01-20T04:49:13.571Z,98351
2018-01-20T04:51:19.313Z,98352
2018-01-20T04:53:25.192Z,98356
2018-01-20T04:55:30.771Z,98369
2018-01-20T04:57:36.344Z,98354
2018-01-20T04:59:42.199Z,98367
2018-01-20T05:01:47.827Z,98353
2018-01-20T05:03:53.397Z,98340
2018-01-20T05:05:59.313Z,98339
2018-01-20T05:08:04.943Z,98343
2018-01-20T05:10:10.574Z,98328
2018-01-20T05:12:16.273Z,98322
2018-01-20T05:14:22.311Z,98309
2018-01-20T05:16:27.787Z,98315
2018-01-20T05:18:33.426Z,98318
2018-01-20T05:20:39.511Z,98315
2018-01-20T05:22:45.185Z,98298
2018-01-20T05:24:50.734Z,98304
2018-01-20T05:26:56.323Z,98304
2018-01-20T05:29:02.501Z,98302
2018-01-20T05:31:08.188Z,98305
2018-01-20T05:33:14.273Z,98313
2018-01-20T05:35:19.792Z,98304
2018-01-20T05:37:25.321Z,98323
2018-01-20T05:39:31.267Z,98325
2018-01-20T05:41:37.823Z,98329
2018-01-20T05:43:43.449Z,98315
2018-01-20T05:45:49.102Z,98314
2018-01-20T05:47:56.591Z,98313
2018-01-20T05:50:03.163Z,98332
2018-01-20T05:52:09.180Z,98310
2018-01-20T05:54:15.214Z,98319
2018-01-20T05:56:20.878Z,98304
2018-01-20T05:58:26.584Z,98328
2018-01-20T06:00:32.290Z,98330
2018-01-20T06:02:38.384Z,98330
2018-01-20T06:04:48.476Z,98305
2018-01-20T06:06:56.940Z,98312
2018-01-20T06:09:08.409Z,98296
2018-01-20T06:11:20.124Z,98319
2018-01-20T06:16:24.219Z,98300
2018-01-20T06:18:33.458Z,98293
2018-01-20T06:20:40.323Z,98286
2018-01-20T06:22:51.093Z,98292
2018-01-20T06:24:57.084Z,98290
2018-01-20T06:27:04.717Z,98290
2018-01-20T06:29:17.551Z,98291
2018-01-20T06:31:36.448Z,98286
2018-01-20T06:33:43.120Z,98285
2018-01-20T06:35:49.158Z,98297
2018-01-20T06:37:58.356Z,98283
2018-01-20T06:40:04.776Z,98278
2018-01-20T06:42:13.831Z,98296
2018-01-20T06:44:24.253Z,98287
2018-01-20T06:46:30.800Z,98286
2018-01-20T06:48:36.749Z,98283
2018-01-20T06:50:42.305Z,98282
2018-01-20T06:52:48.048Z,98290
2018-01-20T06:54:55.988Z,98286
2018-01-20T06:57:02.045Z,98296
2018-01-20T06:59:09.180Z,98300
2018-01-20T07:01:15.415Z,98290
2018-01-20T07:03:21.398Z,98276
2018-01-20T07:05:30.134Z,98287
2018-01-20T07:07:36.192Z,98286
2018-01-20T07:09:41.988Z,98269
2018-01-20T07:11:47.668Z,98276
2018-01-20T07:13:55.147Z,98284
2018-01-20T07:16:01.158Z,98291
2018-01-20T07:18:06.920Z,98288
2018-01-20T07:20:14.102Z,98281
2018-01-20T07:22:26.108Z,98292
2018-01-20T07:24:33.173Z,98294
2018-01-20T07:26:41.825Z,98287
2018-01-20T07:28:49.857Z,98288
2018-01-20T07:30:58.923Z,98299
2018-01-20T07:33:06.036Z,98291
2018-01-20T07:35:15.028Z,98287
2018-01-20T07:37:24.128Z,98288
2018-01-20T07:39:30.993Z,98292
2018-01-20T07:41:38.164Z,98288
2018-01-20T07:43:44.857Z,98283
2018-01-20T07:45:50.825Z,98293
2018-01-20T07:47:57.277Z,98307
2018-01-20T07:50:06.464Z,98306
2018-01-20T07:52:13.913Z,98309
2018-01-20T07:54:21.883Z,98299
2018-01-20T07:56:28.471Z,98298
2018-01-20T07:58:36.023Z,98297
2018-01-20T08:03:06.773Z,98299
2018-01-20T08:05:16.069Z,98300
2018-01-20T08:07:24.113Z,98296
2018-01-20T08:09:29.824Z,98292
2018-01-20T08:11:37.302Z,98302
2018-01-20T08:13:44.769Z,98305
2018-01-20T08:15:51.461Z,98301
2018-01-20T08:17:58.021Z,98295
2018-01-20T08:20:06.521Z,98302
2018-01-20T08:22:13.524Z,98298
2018-01-20T08:24:20.665Z,98279
2018-01-20T08:26:30.883Z,98288
2018-01-20T08:28:38.482Z,98280
2018-01-20T08:30:46.273Z,98282
2018-01-20T08:32:52.548Z,98298
2018-01-20T08:34:59.369Z,98278
2018-01-20T08:37:05.657Z,98305
2018-01-20T08:39:12.085Z,98282
2018-01-20T08:41:17.874Z,98268
2018-01-20T08:43:23.817Z,98277
2018-01-20T08:45:31.829Z,98277
2018-01-20T08:47:39.175Z,98269
2018-01-20T08:49:46.572Z,98282
2018-01-20T08:51:52.748Z,98291
2018-01-20T08:53:58.423Z,98277
2018-01-20T08:56:04.416Z,98272
2018-01-20T08:58:11.847Z,98280
2018-01-20T09:00:19.998Z,98270
2018-01-20T09:02:26.143Z,98272
2018-01-20T09:04:32.941Z,98267
2018-01-20T09:06:39.119Z,98278
2018-01-20T09:08:45.286Z,98273
2018-01-20T09:10:51.887Z,98270
2018-01-20T09:12:58.228Z,98272
2018-01-20T09:15:05.462Z,98251
2018-01-20T09:17:12.474Z,98253
2018-01-20T09:19:20.507Z,98275
2018-01-20T09:21:28.823Z,98275
2018-01-20T09:23:36.493Z,98277
2018-01-20T09:25:43.470Z,98276
2018-01-20T09:27:50.348Z,98266
2018-01-20T09:29:58.988Z,98262
2018-01-20T09:32:07.027Z,98273
2018-01-20T09:34:13.089Z,98271
2018-01-20T09:36:21.368Z,98274
2018-01-20T09:40:38.506Z,98268
2018-01-20T09:42:45.437Z,98267
2018-01-20T09:44:51.195Z,98269
2018-01-20T09:46:57.545Z,98270
2018-01-20T09:49:03.214Z,98261
2018-01-20T09:51:10.466Z,98256
2018-01-20T09:53:16.701Z,98256
2018-01-20T09:55:24.066Z,98265
2018-01-20T09:57:32.176Z,98259
2018-01-20T09:59:39.454Z,98269
2018-01-20T10:01:46.413Z,98267
2018-01-20T10:03:53.112Z,98265
2018-01-20T10:05:59.192Z,98257
2018-01-20T10:08:05.766Z,98255
2018-01-20T10:10:13.982Z,98254
2018-01-20T10:12:20.031Z,98247
2018-01-20T10:14:26.140Z,98247
2018-01-20T10:16:32.145Z,98245
2018-01-20T10:18:38.151Z,98249
2018-01-20T10:20:44.112Z,98252
2018-01-20T10:22:50.030Z,98258
2018-01-20T10:24:56.446Z,98248
2018-01-20T10:27:02.713Z,98246
2018-01-20T10:29:09.967Z,98248
2018-01-20T10:31:29.514Z,98241
2018-01-20T10:38:42.991Z,98246
2018-01-20T10:41:05.175Z,98251
2018-01-20T10:43:12.379Z,98239
2018-01-20T10:45:51.910Z,98238
2018-01-20T10:50:38.639Z,98228
2018-01-20T10:55:21.051Z,98225
2018-01-20T10:57:30.401Z,98219
2018-01-20T10:59:43.269Z,98218
2018-01-20T11:01:57.802Z,98207
2018-01-20T11:04:17.093Z,98209
2018-01-20T11:06:26.122Z,98208
2018-01-20T11:08:39.635Z,98197
2018-01-20T11:10:52.230Z,98197
2018-01-20T11:13:02.871Z,98189
2018-01-20T11:15:17.164Z,98183
2018-01-20T11:17:25.842Z,98173
2018-01-20T11:19:35.184Z,98174
2018-01-20T11:21:43.563Z,98168
2018-01-20T11:23:49.650Z,98168
2018-01-20T11:25:56.136Z,98165
2018-01-20T11:28:02.470Z,98147
2018-01-20T11:30:11.460Z,98136
2018-01-20T11:32:17.767Z,98129
2018-01-20T11:34:24.328Z,98123
2018-01-20T11:36:30.954Z,98115
2018-01-20T11:38:37.613Z,98124
2018-01-20T11:40:46.408Z,98114
2018-01-20T11:42:54.120Z,98111
2018-01-20T11:45:01.893Z,98105
2018-01-20T11:47:08.992Z,98112
2018-01-20T11:49:17.227Z,98109
2018-01-20T11:51:23.414Z,98100
2018-01-20T11:53:34.797Z,98108
2018-01-20T11:55:41.602Z,98090
2018-01-20T11:57:48.424Z,98093
2018-01-20T11:59:54.338Z,98101
2018-01-20T12:02:01.584Z,98093
2018-01-20T12:04:08.022Z,98087
2018-01-20T12:06:13.991Z,98087
2018-01-20T12:08:20.601Z,98068
2018-01-20T12:10:29.094Z,98077
2018-01-20T12:12:35.426Z,98083
2018-01-20T12:14:45.067Z,98077
2018-01-20T12:16:54.384Z,98074
2018-01-20T12:19:02.210Z,98077
2018-01-20T12:21:09.205Z,98059
2018-01-20T12:23:15.188Z,98057
2018-01-20T12:25:22.354Z,98056
2018-01-20T12:27:28.898Z,98049
2018-01-20T12:29:38.951Z,98053
2018-01-20T12:31:46.534Z,98046
2018-01-20T12:33:55.601Z,98043
2018-01-20T12:36:01.569Z,98038
2018-01-20T12:38:07.817Z,98040
2018-01-20T12:40:14.511Z,98037
2018-01-20T12:42:20.741Z,98037
2018-01-20T12:44:26.738Z,98031
2018-01-20T12:46:32.595Z,98027
2018-01-20T12:48:38.644Z,98017
2018-01-20T12:50:44.904Z,98018
2018-01-20T12:52:51.059Z,98010
2018-01-20T12:54:56.902Z,97991
2018-01-20T12:57:03.207Z,98004
2018-01-20T12:59:09.813Z,98000
2018-01-20T13:01:15.892Z,98003
2018-01-20T13:03:21.984Z,97999
2018-01-20T13:05:35.723Z,97996
2018-01-20T13:07:42.407Z,97983
2018-01-20T13:09:53.225Z,97993
2018-01-20T13:12:00.093Z,97992
2018-01-20T13:14:07.917Z,97990
2018-01-20T13:16:14.222Z,97983
2018-01-20T13:18:21.193Z,97977
2018-01-20T13:20:27.404Z,97977
2018-01-20T13:22:34.761Z,97975
2018-01-20T13:24:41.128Z,97972
2018-01-20T13:26:49.332Z,97960
2018-01-20T13:28:55.555Z,97958
2018-01-20T13:31:01.887Z,97950
2018-01-20T13:33:08.241Z,97947
2018-01-20T13:35:14.195Z,97939
2018-01-20T13:37:20.846Z,97937
2018-01-20T13:39:27.129Z,97939
2018-01-20T13:41:33.248Z,97933
2018-01-20T13:43:40.033Z,97931
2018-01-20T13:45:46.207Z,97933
2018-01-20T13:47:52.175Z,97930
2018-01-20T13:50:00.641Z,97917
2018-01-20T13:52:07.144Z,97925
2018-01-20T13:54:13.739Z,97918
2018-01-20T13:56:20.328Z,97915
2018-01-20T13:58:26.031Z,97916
2018-01-20T14:00:31.823Z,97917
2018-01-20T14:02:37.701Z,97907
2018-01-20T14:04:44.360Z,97902
2018-01-20T14:06:50.792Z,97900
2018-01-20T14:08:58.866Z,97894
2018-01-20T14:11:06.502Z,97886
2018-01-20T14:13:12.393Z,97879
2018-01-20T14:15:18.195Z,97878
2018-01-20T14:17:24.357Z,97877
2018-01-20T14:19:31.236Z,97874
2018-01-20T14:21:38.956Z,97867
2018-01-20T14:23:45.020Z,97862
2018-01-20T14:25:51.692Z,97867
2018-01-20T14:27:58.002Z,97859
2018-01-20T14:30:07.090Z,97849
2018-01-20T14:32:13.784Z,97845
2018-01-20T14:34:30.755Z,97848
2018-01-20T14:36:36.882Z,97842
2018-01-20T14:38:43.135Z,97838
2018-01-20T14:40:49.389Z,97836
2018-01-20T14:42:55.712Z,97831
2018-01-20T14:45:01.880Z,97837
2018-01-20T14:47:07.762Z,97834
2018-01-20T14:49:13.378Z,97834
2018-01-20T14:51:19.173Z,97825
2018-01-20T14:53:25.099Z,97828
2018-01-20T14:55:30.903Z,97823
2018-01-20T14:57:36.920Z,97822
2018-01-20T14:59:42.468Z,97818
2018-01-20T15:01:48.090Z,97808
2018-01-20T15:03:53.786Z,97809
2018-01-20T15:05:59.902Z,97807
2018-01-20T15:08:05.743Z,97795
2018-01-20T15:10:13.692Z,97788
2018-01-20T15:12:20.275Z,97788
2018-01-20T15:14:26.166Z,97789
2018-01-20T15:16:31.793Z,97787
2018-01-20T15:18:37.707Z,97785
2018-01-20T15:20:43.254Z,97780
2018-01-20T15:22:49.184Z,97765
2018-01-20T15:24:55.195Z,97762
2018-01-20T15:27:00.991Z,97761
2018-01-20T15:29:06.698Z,97753
2018-01-20T15:31:12.999Z,97751
2018-01-20T15:33:18.789Z,97748
2018-01-20T15:35:24.672Z,97752
2018-01-20T15:37:31.006Z,97753
2018-01-20T15:39:36.830Z,97738
2018-01-20T15:41:42.574Z,97738
2018-01-20T15:43:48.338Z,97733
2018-01-20T15:45:54.394Z,97733
2018-01-20T15:48:00.247Z,97732
2018-01-20T15:50:06.732Z,97725
2018-01-20T15:52:14.473Z,97719
2018-01-20T15:54:20.237Z,97716
2018-01-20T15:56:26.527Z,97714
2018-01-20T15:58:34.900Z,97719
2018-01-20T16:00:41.140Z,97708
2018-01-20T16:02:47.171Z,97714
2018-01-20T16:04:52.914Z,97711
2018-01-20T16:06:59.418Z,97704
2018-01-20T16:09:05.950Z,97705
2018-01-20T16:11:13.127Z,97709
2018-01-20T16:13:19.165Z,97700
2018-01-20T16:15:24.931Z,97702
2018-01-20T16:19:48.587Z,97690
2018-01-20T16:22:00.439Z,97684
2018-01-20T16:24:08.339Z,97685
2018-01-20T16:26:14.427Z,97681
2018-01-20T16:28:21.156Z,97677
2018-01-20T16:30:27.047Z,97673
2018-01-20T16:32:34.196Z,97675
2018-01-20T16:34:40.766Z,97676
2018-01-20T16:36:48.225Z,97674
2018-01-20T16:38:54.427Z,97670
2018-01-20T16:41:00.357Z,97666
2018-01-20T16:43:06.164Z,97662
2018-01-20T16:45:15.528Z,97665
2018-01-20T16:47:21.824Z,97658
2018-01-20T16:49:30.069Z,97660
2018-01-20T16:51:36.345Z,97654
2018-01-20T16:53:47.064Z,97655
2018-01-20T16:55:54.193Z,97648
2018-01-20T16:58:01.917Z,97651
2018-01-20T17:03:03.495Z,97639
2018-01-20T17:05:12.099Z,97639
2018-01-20T17:07:18.370Z,97636
2018-01-20T17:09:25.422Z,97633
2018-01-20T17:11:34.666Z,97630
2018-01-20T17:13:41.890Z,97628
2018-01-20T17:15:48.537Z,97622
2018-01-20T17:17:54.469Z,97617
2018-01-20T17:20:02.471Z,97608
2018-01-20T17:22:08.751Z,97611
2018-01-20T17:24:15.218Z,97608
2018-01-20T17:26:21.390Z,97598
2018-01-20T17:28:28.729Z,97602
2018-01-20T17:30:34.859Z,97600
2018-01-20T17:32:40.742Z,97594
2018-01-20T17:34:46.468Z,97594
2018-01-20T17:36:52.862Z,97597
2018-01-20T17:38:58.814Z,97595
2018-01-20T17:41:05.098Z,97585
2018-01-20T17:43:11.818Z,97586
2018-01-20T17:45:18.148Z,97579
2018-01-20T17:47:24.482Z,97574
2018-01-20T17:49:30.521Z,97571
2018-01-20T17:51:36.480Z,97566
2018-01-20T17:53:44.187Z,97559
2018-01-20T17:55:51.437Z,97559
2018-01-20T17:57:57.690Z,97548
2018-01-20T18:00:06.110Z,97556
2018-01-20T18:02:12.106Z,97559
2018-01-20T18:04:18.139Z,97556
2018-01-20T18:06:24.537Z,97553
2018-01-20T18:08:30.770Z,97550
2018-01-20T18:10:36.819Z,97553
2018-01-20T18:12:43.584Z,97548
2018-01-20T18:14:50.692Z,97544
2018-01-20T18:16:57.248Z,97539
2018-01-20T18:19:03.851Z,97542
2018-01-20T18:21:10.197Z,97537
2018-01-20T18:23:19.497Z,97538
2018-01-20T18:25:25.775Z,97533
2018-01-20T18:27:32.178Z,97536
2018-01-20T18:29:39.102Z,97534
2018-01-20T18:31:45.116Z,97535
2018-01-20T18:33:51.416Z,97536
2018-01-20T18:35:58.706Z,97538
2018-01-20T18:39:08.819Z,97534
2018-01-20T18:41:18.081Z,97529
2018-01-20T18:43:23.908Z,97528
2018-01-20T18:45:32.668Z,97534
2018-01-20T18:47:38.903Z,97532
2018-01-20T18:49:44.865Z,97532
2018-01-20T18:51:51.327Z,97535
2018-01-20T18:53:57.404Z,97532
2018-01-20T18:56:03.339Z,97538
2018-01-20T18:58:10.737Z,97541
2018-01-20T19:00:18.714Z,97541
2018-01-20T19:02:24.990Z,97532
2018-01-20T19:04:33.540Z,97535
2018-01-20T19:06:39.753Z,97532
2018-01-20T19:08:46.409Z,97533
2018-01-20T19:10:52.584Z,97535
2018-01-20T19:12:59.084Z,97536
2018-01-20T19:15:06.196Z,97528
2018-01-20T19:17:15.284Z,97527
2018-01-20T19:19:26.036Z,97528
2018-01-20T19:21:33.910Z,97526
2018-01-20T19:23:40.665Z,97524
2018-01-20T19:25:47.913Z,97528
2018-01-20T19:27:55.499Z,97526
2018-01-20T19:30:07.966Z,97526
2018-01-20T19:32:16.601Z,97523
2018-01-20T19:34:32.320Z,97525
2018-01-20T19:36:39.272Z,97534
2018-01-20T19:38:47.238Z,97529
2018-01-20T19:40:53.482Z,97535
2018-01-20T19:43:00.308Z,97536
2018-01-20T19:45:08.993Z,97531
2018-01-20T19:47:15.259Z,97538
2018-01-20T19:49:21.517Z,97534
2018-01-20T19:51:27.884Z,97537
2018-01-20T19:53:36.132Z,97533
2018-01-20T19:55:42.602Z,97538
2018-01-20T19:57:48.922Z,97536
2018-01-20T19:59:55.485Z,97539
2018-01-20T20:02:19.884Z,97537
2018-01-20T20:04:25.735Z,97535
2018-01-20T20:06:31.475Z,97541
2018-01-20T20:08:37.935Z,97534
2018-01-20T20:10:43.702Z,97532
2018-01-20T20:12:49.424Z,97535
2018-01-20T20:14:55.937Z,97531
2018-01-20T20:17:02.815Z,97527
2018-01-20T20:19:08.952Z,97531
2018-01-20T20:21:16.626Z,97529
2018-01-20T20:23:29.366Z,97531
2018-01-20T20:25:35.419Z,97531
2018-01-20T20:27:41.259Z,97529
2018-01-20T20:29:47.366Z,97531
2018-01-20T20:32:13.973Z,97530
2018-01-20T20:34:20.853Z,97527
2018-01-20T20:36:26.712Z,97526
2018-01-20T20:38:36.576Z,97523
2018-01-20T20:40:46.816Z,97525
2018-01-20T20:42:52.560Z,97522
2018-01-20T20:44:58.519Z,97531
2018-01-20T20:47:04.658Z,97533
2018-01-20T20:49:10.394Z,97532
2018-01-20T20:51:16.093Z,97529
2018-01-20T20:53:24.258Z,97535
2018-01-20T20:55:30.046Z,97524
2018-01-20T20:57:35.994Z,97520
2018-01-20T20:59:42.850Z,97523
2018-01-20T21:01:49.146Z,97526
2018-01-20T21:03:55.227Z,97523
2018-01-20T21:06:01.276Z,97530
2018-01-20T21:08:09.520Z,97523
2018-01-20T21:10:15.773Z,97537
2018-01-20T21:12:25.349Z,97541
2018-01-20T21:14:31.953Z,97539
2018-01-20T21:16:37.649Z,97537
2018-01-20T21:18:44.251Z,97543
2018-01-20T21:20:53.411Z,97538
2018-01-20T21:22:59.796Z,97537
2018-01-20T21:25:06.853Z,97540
2018-01-20T21:27:12.922Z,97539
2018-01-20T21:29:22.025Z,97539
2018-01-20T21:31:28.494Z,97536
2018-01-20T21:33:38.855Z,97534
2018-01-20T21:35:49.303Z,97532
2018-01-20T21:37:55.948Z,97525
2018-01-20T21:40:05.173Z,97531
2018-01-20T21:42:12.854Z,97533
2018-01-20T21:44:19.314Z,97539
2018-01-20T21:46:26.252Z,97541
2018-01-20T21:48:32.032Z,97539
2018-01-20T21:50:38.223Z,97540
2018-01-20T21:52:44.673Z,97536
2018-01-20T21:54:51.577Z,97531
2018-01-20T21:56:57.578Z,97521
2018-01-20T21:59:03.838Z,97524
2018-01-20T22:01:09.518Z,97520
2018-01-20T22:03:16.040Z,97526
2018-01-20T22:05:22.576Z,97526
2018-01-20T22:07:28.463Z,97535
2018-01-20T22:09:35.527Z,97534
2018-01-20T22:11:42.819Z,97539
2018-01-20T22:13:51.246Z,97542
2018-01-20T22:15:57.851Z,97550
2018-01-20T22:18:04.842Z,97553
2018-01-20T22:20:14.506Z,97549
2018-01-20T22:22:21.989Z,97546
2018-01-20T22:24:28.512Z,97543
2018-01-20T22:26:35.458Z,97544
2018-01-20T22:28:42.513Z,97540
2018-01-20T22:30:48.539Z,97541
2018-01-20T22:32:55.161Z,97538
2018-01-20T22:35:02.753Z,97541
2018-01-20T22:37:09.645Z,97539
2018-01-20T22:39:15.653Z,97545
2018-01-20T22:41:22.727Z,97544
2018-01-20T22:43:28.525Z,97545
2018-01-20T22:45:35.007Z,97546
2018-01-20T22:47:41.276Z,97546
2018-01-20T22:50:40.279Z,97547
2018-01-20T22:52:56.064Z,97549
2018-01-20T22:55:16.121Z,97550
2018-01-20T22:57:37.414Z,97554
2018-01-20T22:59:43.804Z,97558
2018-01-20T23:01:53.127Z,97561
2018-01-20T23:03:59.158Z,97554
2018-01-20T23:06:06.846Z,97557
2018-01-20T23:08:13.968Z,97556
2018-01-20T23:10:20.837Z,97555
2018-01-20T23:12:27.517Z,97561
2018-01-20T23:14:34.569Z,97554
2018-01-20T23:16:40.768Z,97539
2018-01-20T23:18:46.955Z,97552
2018-01-20T23:20:52.579Z,97554
2018-01-20T23:22:58.341Z,97555
2018-01-20T23:25:04.551Z,97555
2018-01-20T23:27:10.986Z,97551
2018-01-20T23:29:16.610Z,97551
2018-01-20T23:31:22.776Z,97552
2018-01-20T23:33:28.525Z,97561
2018-01-20T23:35:34.391Z,97563
2018-01-20T23:37:42.910Z,97568
2018-01-20T23:39:49.340Z,97566
2018-01-20T23:41:55.306Z,97568
2018-01-20T23:44:01.302Z,97566
2018-01-20T23:46:07.162Z,97565
2018-01-20T23:48:12.983Z,97577
2018-01-20T23:50:19.557Z,97576
2018-01-20T23:52:25.294Z,97582
2018-01-20T23:54:31.062Z,97584
2018-01-20T23:56:37.139Z,97590
2018-01-20T23:58:43.251Z,97589
